Time;durP1;ratioP1;P1;durP2;ratioP2;P2;SDS_P1;SDS_P2;PMS_P1;PMS_P2;Temp;Humidity;BMP_temperature;BMP_pressure;BME280_temperature;BME280_humidity;BME280_pressure;Samples;Min_cycle;Max_cycle;Signal;HPM_P1;HPM_P2
2022/03/03 00:01:39;;;;;;;104.88;54.28;;;2.50;99.90;;;;;;4995371;28;20050;-85
2022/03/03 00:04:06;;;;;;;98.95;52.35;;;2.50;99.90;;;;;;5011369;28;20455;-84
2022/03/03 00:06:32;;;;;;;105.38;53.83;;;2.50;99.90;;;;;;5011474;28;20058;-85
2022/03/03 00:08:58;;;;;;;104.07;53.80;;;2.50;99.90;;;;;;4994425;28;20081;-85
2022/03/03 00:11:24;;;;;;;101.95;51.97;;;2.40;99.90;;;;;;5010933;28;20482;-83
2022/03/03 00:13:49;;;;;;;104.25;53.88;;;2.40;99.90;;;;;;4978945;28;20046;-85
2022/03/03 00:16:15;;;;;;;105.30;53.38;;;2.40;99.90;;;;;;4994407;28;20038;-85
2022/03/03 00:18:41;;;;;;;98.03;51.40;;;2.40;99.90;;;;;;5011235;28;20049;-85
2022/03/03 00:21:07;;;;;;;101.85;51.85;;;2.40;99.90;;;;;;5011069;28;20056;-85
2022/03/03 00:23:32;;;;;;;106.85;53.58;;;2.40;99.90;;;;;;5011465;28;20053;-85
2022/03/03 00:25:59;;;;;;;101.30;53.83;;;2.40;99.90;;;;;;4994492;28;20050;-85
2022/03/03 00:28:25;;;;;;;99.10;52.60;;;2.30;99.90;;;;;;4994628;28;20049;-85
2022/03/03 00:30:51;;;;;;;105.22;53.55;;;2.30;99.90;;;;;;4994848;28;20045;-85
2022/03/03 00:33:16;;;;;;;104.00;52.05;;;2.30;99.90;;;;;;5011592;28;20103;-84
2022/03/03 00:35:42;;;;;;;102.10;51.80;;;2.30;99.90;;;;;;5011682;28;20394;-84
2022/03/03 00:38:09;;;;;;;99.72;54.00;;;2.30;99.90;;;;;;4995111;28;20053;-85
2022/03/03 00:40:35;;;;;;;110.30;54.15;;;2.30;99.90;;;;;;5010041;28;20038;-85
2022/03/03 00:43:01;;;;;;;94.72;51.60;;;2.20;99.90;;;;;;5013716;28;20041;-85
2022/03/03 00:45:27;;;;;;;110.05;53.95;;;2.10;99.90;;;;;;5014339;28;20057;-85
2022/03/03 00:47:53;;;;;;;106.28;53.20;;;2.20;99.90;;;;;;4997817;28;20045;-85
2022/03/03 00:50:18;;;;;;;105.25;52.95;;;2.20;99.90;;;;;;4985313;28;20041;-85
2022/03/03 00:52:44;;;;;;;104.22;52.13;;;2.10;99.90;;;;;;5003692;28;20052;-85
2022/03/03 00:55:10;;;;;;;100.80;51.42;;;2.10;99.90;;;;;;4981541;28;20406;-84
2022/03/03 00:57:36;;;;;;;100.22;51.95;;;2.10;99.90;;;;;;5006514;28;20041;-85
2022/03/03 01:00:05;;;;;;;98.00;51.42;;;2.20;99.90;;;;;;5017332;28;20041;-85
2022/03/03 01:02:31;;;;;;;99.47;51.78;;;2.10;99.90;;;;;;5014294;28;20147;-85
2022/03/03 01:04:56;;;;;;;103.55;53.38;;;2.10;99.90;;;;;;5002777;28;20034;-85
2022/03/03 01:07:22;;;;;;;108.35;54.40;;;2.10;99.90;;;;;;4982133;28;20045;-85
2022/03/03 01:09:48;;;;;;;102.10;55.28;;;2.20;99.90;;;;;;4981805;28;20460;-85
2022/03/03 01:12:13;;;;;;;101.57;51.00;;;2.20;99.90;;;;;;4999276;28;20057;-85
2022/03/03 01:14:39;;;;;;;112.13;56.15;;;2.20;99.90;;;;;;4998101;28;20106;-85
2022/03/03 01:17:05;;;;;;;118.47;57.83;;;2.10;99.90;;;;;;4997998;28;20066;-85
2022/03/03 01:19:30;;;;;;;115.25;57.88;;;2.00;99.90;;;;;;4982494;28;20048;-85
2022/03/03 01:21:57;;;;;;;115.65;59.47;;;2.00;99.90;;;;;;5010230;28;20541;-85
2022/03/03 01:24:22;;;;;;;116.88;58.05;;;2.00;99.90;;;;;;5002401;28;20053;-84
2022/03/03 01:26:48;;;;;;;104.32;54.38;;;2.00;99.90;;;;;;5011069;28;20114;-85
2022/03/03 01:29:14;;;;;;;103.03;54.03;;;2.00;99.90;;;;;;5017495;28;20048;-85
2022/03/03 01:31:39;;;;;;;106.75;55.00;;;2.10;99.90;;;;;;4986391;28;20587;-84
2022/03/03 01:34:06;;;;;;;97.55;50.80;;;2.00;99.90;;;;;;5001183;28;20107;-84
2022/03/03 01:36:33;;;;;;;106.50;51.72;;;2.00;99.90;;;;;;5017784;28;20041;-85
2022/03/03 01:38:59;;;;;;;104.18;52.85;;;2.00;99.90;;;;;;5017850;28;20060;-84
2022/03/03 01:41:25;;;;;;;103.18;52.13;;;1.90;99.90;;;;;;5001789;28;20041;-84
2022/03/03 01:43:51;;;;;;;105.65;54.10;;;1.90;99.90;;;;;;5024163;28;20063;-84
2022/03/03 01:46:17;;;;;;;103.30;53.60;;;1.90;99.90;;;;;;5000639;28;20038;-84
2022/03/03 01:48:44;;;;;;;111.25;55.25;;;1.80;99.90;;;;;;4985188;28;20041;-85
2022/03/03 01:51:10;;;;;;;105.63;54.78;;;1.80;99.90;;;;;;5018083;28;20041;-85
2022/03/03 01:53:36;;;;;;;108.97;52.58;;;1.80;99.90;;;;;;5017044;28;20053;-85
2022/03/03 01:56:03;;;;;;;101.10;53.05;;;1.80;99.90;;;;;;5001197;28;20045;-85
2022/03/03 01:58:28;;;;;;;113.30;56.00;;;1.80;99.90;;;;;;5032180;28;20077;-84
2022/03/03 02:00:54;;;;;;;108.32;54.28;;;1.80;99.90;;;;;;4986204;28;20089;-84
2022/03/03 02:03:20;;;;;;;110.15;54.30;;;1.80;99.90;;;;;;5001072;28;20045;-83
2022/03/03 02:05:46;;;;;;;103.35;53.83;;;1.80;99.90;;;;;;5001295;28;20124;-85
2022/03/03 02:08:13;;;;;;;109.18;55.65;;;1.80;99.90;;;;;;5001969;28;20470;-85
2022/03/03 02:10:39;;;;;;;104.45;54.20;;;1.80;99.90;;;;;;4985006;28;20398;-85
2022/03/03 02:13:06;;;;;;;104.32;52.45;;;1.80;99.90;;;;;;5001229;28;20046;-85
2022/03/03 02:15:32;;;;;;;120.32;56.17;;;1.80;99.90;;;;;;4999856;28;20103;-84
2022/03/03 02:17:57;;;;;;;102.25;53.25;;;1.80;99.90;;;;;;4986031;28;20038;-84
2022/03/03 02:20:25;;;;;;;110.25;54.50;;;1.70;99.90;;;;;;5018523;28;20041;-85
2022/03/03 02:22:52;;;;;;;115.03;54.72;;;1.70;99.90;;;;;;5000700;28;20079;-84
2022/03/03 02:25:19;;;;;;;110.03;53.80;;;1.70;99.90;;;;;;5002023;28;20073;-84
2022/03/03 02:27:45;;;;;;;111.53;54.33;;;1.70;99.90;;;;;;5006753;28;20049;-85
2022/03/03 02:30:13;;;;;;;111.10;54.38;;;1.70;99.90;;;;;;5000951;28;20102;-85
2022/03/03 02:32:39;;;;;;;107.65;52.42;;;1.60;99.90;;;;;;4999102;28;20090;-84
2022/03/03 02:35:06;;;;;;;108.38;53.75;;;1.60;99.90;;;;;;5017242;28;20053;-84
2022/03/03 02:37:36;;;;;;;106.63;53.33;;;1.60;99.90;;;;;;4984160;28;20590;-84
2022/03/03 02:40:06;;;;;;;108.80;53.67;;;1.60;99.90;;;;;;5000575;28;20053;-84
2022/03/03 02:42:31;;;;;;;104.13;53.50;;;1.60;99.90;;;;;;5016223;28;20163;-84
2022/03/03 02:44:57;;;;;;;97.90;49.50;;;1.60;99.90;;;;;;4995800;28;20073;-84
2022/03/03 02:47:23;;;;;;;110.45;55.03;;;1.50;99.90;;;;;;5016443;28;20049;-84
2022/03/03 02:49:48;;;;;;;103.28;51.65;;;1.50;99.90;;;;;;5016788;28;20119;-84
2022/03/03 02:52:14;;;;;;;110.25;53.85;;;1.50;99.90;;;;;;4999851;28;20080;-84
2022/03/03 02:54:40;;;;;;;105.53;51.17;;;1.50;99.90;;;;;;4983430;28;20042;-84
2022/03/03 02:59:51;;;;;;;101.43;51.47;;;1.40;99.90;;;;;;5001372;28;20402;-85
2022/03/03 03:02:17;;;;;;;105.38;53.10;;;1.40;99.90;;;;;;4983930;28;20071;-84
2022/03/03 03:04:43;;;;;;;100.60;52.78;;;1.30;99.90;;;;;;4983660;28;20041;-84
2022/03/03 03:07:09;;;;;;;106.70;52.10;;;1.40;99.90;;;;;;5016486;28;20041;-84
2022/03/03 03:09:34;;;;;;;106.57;53.95;;;1.40;99.90;;;;;;5003704;28;20045;-84
2022/03/03 03:12:00;;;;;;;112.70;55.90;;;1.40;99.90;;;;;;4983404;28;20049;-84
2022/03/03 03:14:26;;;;;;;109.15;53.38;;;1.30;99.90;;;;;;5015796;28;20049;-85
2022/03/03 03:16:52;;;;;;;113.07;53.53;;;1.30;99.90;;;;;;4999233;28;20045;-84
2022/03/03 03:19:18;;;;;;;102.93;50.80;;;1.30;99.90;;;;;;5000176;28;20560;-84
2022/03/03 03:21:43;;;;;;;106.32;53.67;;;1.20;99.90;;;;;;4983576;28;20064;-85
2022/03/03 03:24:09;;;;;;;106.63;53.45;;;1.10;99.90;;;;;;5016036;28;20447;-84
2022/03/03 03:26:35;;;;;;;99.60;51.53;;;1.10;99.90;;;;;;4984205;28;20103;-84
2022/03/03 03:29:00;;;;;;;109.90;53.42;;;1.10;99.90;;;;;;4987593;28;20049;-84
2022/03/03 03:31:27;;;;;;;106.10;52.67;;;1.00;99.90;;;;;;4999078;28;20064;-83
2022/03/03 03:33:53;;;;;;;97.07;51.45;;;1.10;99.90;;;;;;4983842;28;20087;-83
2022/03/03 03:36:19;;;;;;;111.35;53.40;;;1.00;99.90;;;;;;5015876;28;20042;-85
2022/03/03 03:38:45;;;;;;;111.40;53.38;;;1.00;99.90;;;;;;4982589;28;20508;-84
2022/03/03 03:41:12;;;;;;;98.70;50.10;;;1.00;99.90;;;;;;4968153;28;20045;-84
2022/03/03 03:43:38;;;;;;;105.45;54.00;;;0.90;99.90;;;;;;5005597;28;20093;-84
2022/03/03 03:46:04;;;;;;;98.15;49.70;;;1.00;99.90;;;;;;5018254;28;20084;-83
2022/03/03 03:48:29;;;;;;;100.78;51.05;;;1.00;99.90;;;;;;5015569;28;20049;-84
2022/03/03 03:50:55;;;;;;;96.90;50.05;;;0.90;99.90;;;;;;5005942;28;20057;-83
2022/03/03 03:53:21;;;;;;;99.38;52.22;;;0.90;99.90;;;;;;5000746;28;20048;-84
2022/03/03 03:55:47;;;;;;;101.95;52.33;;;0.90;99.90;;;;;;5016773;28;20136;-84
2022/03/03 03:58:13;;;;;;;97.55;51.78;;;0.90;99.90;;;;;;5000384;28;20048;-83
2022/03/03 04:00:39;;;;;;;100.20;52.03;;;1.00;99.90;;;;;;5000057;28;20037;-84
2022/03/03 04:03:05;;;;;;;102.32;50.88;;;1.00;99.90;;;;;;5020866;28;20041;-84
2022/03/03 04:05:30;;;;;;;95.60;50.05;;;0.90;99.90;;;;;;5015735;28;20167;-84
2022/03/03 04:07:56;;;;;;;99.72;53.65;;;0.90;99.90;;;;;;5007945;28;20045;-83
2022/03/03 04:10:22;;;;;;;98.78;51.40;;;0.90;99.90;;;;;;4983317;28;20053;-84
2022/03/03 04:12:48;;;;;;;95.03;51.08;;;1.00;99.90;;;;;;5000613;28;20041;-84
2022/03/03 04:15:14;;;;;;;90.28;49.58;;;0.90;99.90;;;;;;4982842;28;20072;-83
2022/03/03 04:17:39;;;;;;;96.55;50.63;;;1.00;99.90;;;;;;5014708;28;20050;-85
2022/03/03 04:20:06;;;;;;;92.82;48.05;;;1.00;99.90;;;;;;4995796;28;20481;-85
2022/03/03 04:22:33;;;;;;;89.97;48.88;;;1.00;99.90;;;;;;4999724;28;20049;-84
2022/03/03 04:24:58;;;;;;;93.30;49.47;;;1.00;99.90;;;;;;4963357;28;20096;-84
2022/03/03 04:27:24;;;;;;;93.10;48.63;;;0.90;99.90;;;;;;4982550;28;20045;-84
2022/03/03 04:29:50;;;;;;;87.40;47.25;;;0.90;99.90;;;;;;5014677;28;20120;-84
2022/03/03 04:32:15;;;;;;;84.78;47.80;;;1.00;99.90;;;;;;4998687;28;20095;-84
2022/03/03 04:34:42;;;;;;;86.53;46.45;;;1.10;99.90;;;;;;4999778;28;21610;-84
2022/03/03 04:37:08;;;;;;;83.78;46.22;;;1.00;99.90;;;;;;4975701;28;20045;-84
2022/03/03 04:39:33;;;;;;;86.45;47.08;;;0.90;99.90;;;;;;4966457;28;20056;-84
2022/03/03 04:41:59;;;;;;;86.40;47.42;;;0.90;99.90;;;;;;4982503;28;20490;-84
2022/03/03 04:44:26;;;;;;;82.65;46.00;;;0.90;99.90;;;;;;4994296;28;20079;-84
2022/03/03 04:46:51;;;;;;;84.30;45.97;;;0.90;99.90;;;;;;5011417;28;20042;-84
2022/03/03 04:49:17;;;;;;;76.35;45.05;;;0.90;99.90;;;;;;4995661;28;20046;-84
2022/03/03 04:51:42;;;;;;;83.85;46.28;;;0.90;99.90;;;;;;4997687;28;20123;-84
2022/03/03 04:54:10;;;;;;;81.13;45.63;;;0.80;99.90;;;;;;4995473;28;20038;-84
2022/03/03 04:56:36;;;;;;;76.63;45.80;;;0.80;99.90;;;;;;5018650;28;20042;-84
2022/03/03 04:59:02;;;;;;;70.45;44.28;;;0.90;99.90;;;;;;5027845;28;20081;-84
2022/03/03 05:01:28;;;;;;;82.60;47.80;;;0.90;99.90;;;;;;5015628;28;20050;-83
2022/03/03 05:03:54;;;;;;;83.55;46.13;;;0.90;99.90;;;;;;4982473;28;20064;-84
2022/03/03 05:06:19;;;;;;;77.30;46.33;;;0.90;99.90;;;;;;4998154;28;20127;-84
2022/03/03 05:08:45;;;;;;;83.22;46.80;;;0.80;99.90;;;;;;4999060;28;20049;-85
2022/03/03 05:11:11;;;;;;;79.25;45.22;;;0.90;99.90;;;;;;5014180;28;20045;-84
2022/03/03 05:13:37;;;;;;;75.50;43.08;;;0.90;99.90;;;;;;5014616;28;20045;-84
2022/03/03 05:16:03;;;;;;;75.18;43.47;;;0.90;99.90;;;;;;4982188;28;20044;-84
2022/03/03 05:18:30;;;;;;;82.50;45.70;;;0.90;99.90;;;;;;5015108;28;20046;-84
2022/03/03 05:20:56;;;;;;;74.95;45.15;;;0.90;99.90;;;;;;4982342;28;20143;-84
2022/03/03 05:23:22;;;;;;;80.30;45.30;;;0.90;99.90;;;;;;4998574;28;20124;-84
2022/03/03 05:25:48;;;;;;;80.00;44.60;;;0.90;99.90;;;;;;4998780;28;20038;-83
2022/03/03 05:28:14;;;;;;;78.00;43.83;;;0.90;99.90;;;;;;4982871;28;20103;-85
2022/03/03 05:30:39;;;;;;;74.63;43.20;;;0.90;99.90;;;;;;5015043;28;20085;-84
2022/03/03 05:33:06;;;;;;;75.47;43.42;;;0.80;99.90;;;;;;5015283;28;20046;-84
2022/03/03 05:35:31;;;;;;;72.03;43.05;;;0.80;99.90;;;;;;4995790;28;20200;-85
2022/03/03 05:37:57;;;;;;;80.72;45.22;;;0.80;99.90;;;;;;5018876;28;20049;-84
2022/03/03 05:40:23;;;;;;;76.47;45.00;;;0.80;99.90;;;;;;4998397;28;20108;-84
2022/03/03 05:42:48;;;;;;;75.28;42.17;;;0.80;99.90;;;;;;4998210;28;20104;-84
2022/03/03 05:45:14;;;;;;;74.18;44.80;;;0.80;99.90;;;;;;5013950;28;20049;-84
2022/03/03 05:47:41;;;;;;;75.85;42.83;;;0.80;99.90;;;;;;5013650;28;20046;-84
2022/03/03 05:50:07;;;;;;;71.72;41.50;;;0.80;99.90;;;;;;5013931;28;20038;-85
2022/03/03 05:52:33;;;;;;;73.95;42.97;;;0.80;99.90;;;;;;5014536;28;20544;-85
2022/03/03 05:54:59;;;;;;;77.03;45.15;;;0.80;99.90;;;;;;4998248;28;20053;-84
2022/03/03 05:57:45;;;;;;;71.45;42.42;;;0.70;99.90;;;;;;5014244;28;20045;-84
2022/03/03 06:00:16;;;;;;;70.57;41.58;;;0.80;99.90;;;;;;5014486;28;20394;-84
2022/03/03 06:02:53;;;;;;;74.35;43.05;;;0.70;99.90;;;;;;4997226;28;20557;-84
2022/03/03 06:05:22;;;;;;;76.43;42.53;;;0.70;99.90;;;;;;4981548;28;20482;-84
2022/03/03 06:07:52;;;;;;;78.32;43.28;;;0.70;99.90;;;;;;4997715;28;20046;-84
2022/03/03 06:10:23;;;;;;;72.88;42.70;;;0.70;99.90;;;;;;5014443;28;20133;-84
2022/03/03 06:12:54;;;;;;;68.90;41.17;;;0.70;99.90;;;;;;5013873;28;20100;-84
2022/03/03 06:15:23;;;;;;;73.47;41.45;;;0.70;99.90;;;;;;5014946;28;20072;-83
2022/03/03 06:17:50;;;;;;;71.03;41.88;;;0.70;99.90;;;;;;4981282;28;20049;-84
2022/03/03 06:20:18;;;;;;;69.05;41.83;;;0.60;99.90;;;;;;5012610;28;20041;-84
2022/03/03 06:22:44;;;;;;;70.38;41.33;;;0.60;99.90;;;;;;5013712;28;20053;-84
2022/03/03 06:25:10;;;;;;;73.70;42.33;;;0.60;99.90;;;;;;4998543;28;20049;-84
2022/03/03 06:27:36;;;;;;;71.63;42.10;;;0.60;99.90;;;;;;4996570;28;20390;-84
2022/03/03 06:30:04;;;;;;;71.40;42.75;;;0.60;99.90;;;;;;4996588;28;20045;-82
2022/03/03 06:32:30;;;;;;;73.28;42.45;;;0.60;99.90;;;;;;5013250;28;20046;-85
2022/03/03 06:34:56;;;;;;;72.47;43.08;;;0.60;99.90;;;;;;4996117;28;20045;-83
2022/03/03 06:37:22;;;;;;;72.72;41.83;;;0.60;99.90;;;;;;4981203;28;20120;-83
2022/03/03 06:39:48;;;;;;;67.00;40.55;;;0.60;99.90;;;;;;4996619;28;20053;-84
2022/03/03 06:42:13;;;;;;;72.45;41.80;;;0.60;99.90;;;;;;4996781;28;20092;-82
2022/03/03 06:44:39;;;;;;;71.30;41.53;;;0.70;99.90;;;;;;4996853;28;20054;-83
2022/03/03 06:47:05;;;;;;;71.18;41.30;;;0.60;99.90;;;;;;5014415;28;20077;-80
2022/03/03 06:49:31;;;;;;;69.47;41.70;;;0.70;99.90;;;;;;4997983;28;20065;-79
2022/03/03 06:51:57;;;;;;;68.03;39.58;;;0.70;99.90;;;;;;4981643;28;20470;-77
2022/03/03 06:54:24;;;;;;;69.57;41.38;;;0.70;99.90;;;;;;4997507;28;20052;-83
2022/03/03 06:56:55;;;;;;;64.63;38.90;;;0.70;99.90;;;;;;4996738;28;20049;-84
2022/03/03 06:59:26;;;;;;;69.40;39.63;;;0.70;99.90;;;;;;5013727;28;20397;-82
2022/03/03 07:01:54;;;;;;;64.00;39.25;;;0.70;99.90;;;;;;4996669;28;20085;-81
2022/03/03 07:04:20;;;;;;;66.00;38.97;;;0.80;99.90;;;;;;4995954;28;20120;-80
2022/03/03 07:06:48;;;;;;;68.50;39.97;;;0.80;99.90;;;;;;4996578;28;20049;-82
2022/03/03 07:09:15;;;;;;;68.03;40.33;;;0.90;99.90;;;;;;4980559;28;20128;-86
2022/03/03 07:11:43;;;;;;;65.03;39.70;;;0.90;99.90;;;;;;4996526;28;20053;-81
2022/03/03 07:14:09;;;;;;;68.28;41.28;;;0.90;99.90;;;;;;5013908;28;20399;-87
2022/03/03 07:16:42;;;;;;;64.72;40.80;;;0.90;99.90;;;;;;5012880;28;20042;-83
2022/03/03 07:19:37;;;;;;;67.30;40.78;;;1.00;99.90;;;;;;5012763;28;20121;-80
2022/03/03 07:22:19;;;;;;;69.93;42.35;;;1.10;99.90;;;;;;4987237;28;20800;-83
2022/03/03 07:25:05;;;;;;;62.33;38.13;;;1.10;99.90;;;;;;5013120;28;20446;-85
2022/03/03 07:27:31;;;;;;;63.03;39.33;;;1.20;99.90;;;;;;4996362;28;20120;-83
2022/03/03 07:30:09;;;;;;;66.40;39.47;;;1.20;99.90;;;;;;4996442;28;20490;-84
2022/03/03 07:32:36;;;;;;;73.10;40.97;;;1.20;99.90;;;;;;4996182;28;20048;-83
2022/03/03 07:35:12;;;;;;;68.82;40.28;;;1.30;99.90;;;;;;5011340;28;20050;-83
2022/03/03 07:38:07;;;;;;;62.50;39.38;;;1.40;99.90;;;;;;5012952;28;20483;-83
2022/03/03 07:40:33;;;;;;;60.97;38.22;;;1.40;99.90;;;;;;4996415;28;20123;-84
2022/03/03 07:43:00;;;;;;;64.40;38.30;;;1.50;99.90;;;;;;5011678;28;20114;-85
2022/03/03 07:45:27;;;;;;;59.47;39.35;;;1.60;99.90;;;;;;4979604;28;20458;-84
2022/03/03 07:47:57;;;;;;;62.45;37.53;;;1.60;99.90;;;;;;4996314;28;20045;-83
2022/03/03 07:50:25;;;;;;;62.75;38.65;;;1.60;99.90;;;;;;4996180;28;20442;-83
2022/03/03 07:52:51;;;;;;;57.65;37.97;;;1.70;99.90;;;;;;5012314;28;20103;-84
2022/03/03 07:55:17;;;;;;;61.05;39.08;;;1.70;99.90;;;;;;4995663;28;20038;-83
2022/03/03 07:57:58;;;;;;;61.80;37.95;;;1.80;99.90;;;;;;4978729;28;20050;-84
2022/03/03 08:00:27;;;;;;;60.60;38.15;;;1.90;99.90;;;;;;4995280;28;20049;-85
2022/03/03 08:02:55;;;;;;;62.22;38.28;;;1.90;99.90;;;;;;5010736;28;20041;-86
2022/03/03 08:05:22;;;;;;;57.63;37.22;;;2.00;99.90;;;;;;4980534;28;20030;-82
2022/03/03 08:07:49;;;;;;;62.10;36.88;;;2.10;99.90;;;;;;4995406;28;20141;-82
2022/03/03 08:10:15;;;;;;;60.90;38.45;;;2.10;99.90;;;;;;4993874;28;20370;-83
2022/03/03 08:12:42;;;;;;;62.40;40.38;;;2.20;99.90;;;;;;4995142;28;20044;-83
2022/03/03 08:15:09;;;;;;;61.42;38.72;;;2.30;99.90;;;;;;5012498;28;20779;-82
2022/03/03 08:17:36;;;;;;;60.33;37.83;;;2.30;99.90;;;;;;4980378;28;20073;-82
2022/03/03 08:20:07;;;;;;;66.63;40.67;;;2.40;99.90;;;;;;5028530;28;20057;-84
2022/03/03 08:22:34;;;;;;;58.67;37.13;;;2.50;99.90;;;;;;4980148;28;20041;-82
2022/03/03 08:25:00;;;;;;;61.90;39.63;;;2.50;99.90;;;;;;5011810;28;20033;-85
2022/03/03 08:27:27;;;;;;;60.80;39.95;;;2.60;99.90;;;;;;5011321;28;20045;-85
2022/03/03 08:29:54;;;;;;;63.35;39.28;;;2.60;99.90;;;;;;5008746;28;20041;-85
2022/03/03 08:32:21;;;;;;;60.25;38.35;;;2.70;99.90;;;;;;4994983;28;20038;-86
2022/03/03 08:35:11;;;;;;;59.28;38.33;;;2.70;99.90;;;;;;5010345;28;20180;-83
2022/03/03 08:37:40;;;;;;;58.15;37.63;;;2.90;99.90;;;;;;4996153;28;20406;-85
2022/03/03 08:40:08;;;;;;;58.00;38.35;;;2.90;99.90;;;;;;5011729;28;20046;-86
2022/03/03 08:42:44;;;;;;;57.70;36.17;;;3.00;99.90;;;;;;4995565;28;20052;-87
2022/03/03 08:45:11;;;;;;;60.70;38.65;;;3.10;99.90;;;;;;5011298;28;20141;-83
2022/03/03 08:47:39;;;;;;;58.75;37.25;;;3.20;99.90;;;;;;5012069;28;20084;-85
2022/03/03 08:50:11;;;;;;;52.33;35.20;;;3.30;99.90;;;;;;5010531;28;20405;-86
2022/03/03 08:52:42;;;;;;;54.97;37.10;;;3.30;99.90;;;;;;5012171;28;20109;-85
2022/03/03 08:55:10;;;;;;;52.78;35.30;;;3.40;99.90;;;;;;5010921;28;20188;-84
2022/03/03 08:57:37;;;;;;;56.92;35.08;;;3.50;99.90;;;;;;4995434;28;20081;-85
2022/03/03 09:00:09;;;;;;;57.58;37.95;;;3.50;99.90;;;;;;5011700;28;20069;-85
2022/03/03 09:02:35;;;;;;;56.80;35.53;;;3.60;99.90;;;;;;4976095;28;20050;-85
2022/03/03 09:05:01;;;;;;;53.35;34.92;;;3.70;99.90;;;;;;4994329;28;20050;-83
2022/03/03 09:07:27;;;;;;;53.58;34.58;;;3.80;99.90;;;;;;4995418;28;20513;-85
2022/03/03 09:09:52;;;;;;;51.50;33.75;;;3.80;99.90;;;;;;4994621;28;20090;-85
2022/03/03 09:12:18;;;;;;;52.47;34.95;;;3.90;99.90;;;;;;4994944;28;20509;-87
2022/03/03 09:14:44;;;;;;;50.75;35.30;;;3.90;99.90;;;;;;4995420;28;20180;-84
2022/03/03 09:17:09;;;;;;;48.13;32.20;;;3.90;99.90;;;;;;5011099;28;20046;-84
2022/03/03 09:19:36;;;;;;;51.63;30.77;;;4.10;99.90;;;;;;5007389;28;20042;-84
2022/03/03 09:22:03;;;;;;;49.08;32.65;;;4.20;99.90;;;;;;4995062;28;20049;-85
2022/03/03 09:24:29;;;;;;;47.70;32.15;;;4.30;99.90;;;;;;5011796;28;20129;-87
2022/03/03 09:26:55;;;;;;;49.30;32.95;;;4.40;99.90;;;;;;4970540;28;20053;-83
2022/03/03 09:29:22;;;;;;;45.78;31.67;;;4.50;99.90;;;;;;5009650;28;20495;-86
2022/03/03 09:31:48;;;;;;;44.20;30.42;;;4.60;99.90;;;;;;5014933;28;20478;-84
2022/03/03 09:34:14;;;;;;;47.30;31.60;;;4.70;99.90;;;;;;5014383;28;20136;-84
2022/03/03 09:36:40;;;;;;;43.38;29.60;;;4.80;99.90;;;;;;5020472;28;20145;-83
2022/03/03 09:39:06;;;;;;;44.80;29.30;;;4.90;99.90;;;;;;4978573;28;20045;-84
2022/03/03 09:41:32;;;;;;;42.30;28.40;;;5.00;99.90;;;;;;4979637;28;20492;-83
2022/03/03 09:43:58;;;;;;;41.50;27.90;;;5.20;99.90;;;;;;4997818;28;20061;-83
2022/03/03 09:46:24;;;;;;;41.65;27.92;;;5.20;99.90;;;;;;5014221;28;20053;-78
2022/03/03 09:48:50;;;;;;;41.92;27.25;;;5.30;99.90;;;;;;5013991;28;20534;-82
2022/03/03 09:51:16;;;;;;;37.42;24.88;;;5.40;99.90;;;;;;5014567;28;20053;-85
2022/03/03 09:53:42;;;;;;;;;;;5.50;99.90;;;;;;4982959;28;20375;-82
2022/03/03 09:56:08;;;;;;;;;;;5.60;99.90;;;;;;5014890;28;19925;-82
2022/03/03 09:58:34;;;;;;;;;;;5.80;99.90;;;;;;4998619;28;19925;-81
2022/03/03 10:00:59;;;;;;;;;;;5.80;99.90;;;;;;4998696;28;19992;-84
2022/03/03 10:03:32;;;;;;;;;;;6.00;99.90;;;;;;4994193;28;19921;-82
2022/03/03 10:06:00;;;;;;;;;;;6.10;99.90;;;;;;5003625;28;20085;-82
2022/03/03 10:08:27;;;;;;;;;;;6.20;99.90;;;;;;5010151;28;19922;-83
2022/03/03 10:10:57;;;;;;;;;;;6.20;99.90;;;;;;5005030;28;19921;-83
2022/03/03 10:13:23;;;;;;;;;;;6.30;99.90;;;;;;5002015;28;19917;-83
2022/03/03 10:15:53;;;;;;;;;;;6.40;99.90;;;;;;5002523;28;20393;-82
2022/03/03 10:18:19;;;;;;;;;;;6.50;99.90;;;;;;5011046;28;20004;-84
2022/03/03 10:20:44;;;;;;;;;;;6.60;99.90;;;;;;5014099;28;19922;-83
2022/03/03 10:23:10;;;;;;;;;;;6.70;99.90;;;;;;5011456;28;19975;-82
2022/03/03 10:25:38;;;;;;;;;;;6.70;99.90;;;;;;5014141;28;20012;-83
2022/03/03 10:28:10;;;;;;;;;;;6.80;99.90;;;;;;5014638;28;20071;-84
2022/03/03 10:30:48;;;;;;;;;;;7.00;99.90;;;;;;5030416;28;19933;-84
2022/03/03 10:33:14;;;;;;;;;;;7.10;99.90;;;;;;5013681;28;20012;-83
2022/03/03 10:35:40;;;;;;;;;;;7.20;99.90;;;;;;5014056;28;19987;-84
2022/03/03 10:38:05;;;;;;;;;;;7.30;99.90;;;;;;5009839;28;20349;-84
2022/03/03 10:40:31;;;;;;;;;;;7.40;99.90;;;;;;5013655;28;19926;-83
2022/03/03 10:42:56;;;;;;;;;;;7.50;99.90;;;;;;5004127;28;19983;-84
2022/03/03 10:45:22;;;;;;;;;;;7.70;99.90;;;;;;5013019;28;19917;-83
2022/03/03 10:48:03;;;;;;;;;;;7.70;99.90;;;;;;5012636;28;20481;-81
2022/03/03 10:50:48;;;;;;;;;;;7.70;99.90;;;;;;4997633;28;19926;-84
2022/03/03 10:53:18;;;;;;;;;;;7.90;99.90;;;;;;4993019;28;21361;-82
2022/03/03 10:56:06;;;;;;;;;;;7.90;99.90;;;;;;5013935;28;19929;-82
2022/03/03 10:58:44;;;;;;;;;;;8.10;99.90;;;;;;4998166;28;19925;-85
2022/03/03 11:01:10;;;;;;;;;;;8.30;99.90;;;;;;5012351;28;19976;-84
2022/03/03 11:03:36;;;;;;;;;;;8.50;99.90;;;;;;4994764;28;19968;-85
2022/03/03 11:06:02;;;;;;;;;;;8.50;99.90;;;;;;4994498;28;19925;-85
2022/03/03 11:08:28;;;;;;;;;;;8.70;99.90;;;;;;4994216;28;19925;-82
2022/03/03 11:10:54;;;;;;;;;;;8.80;99.90;;;;;;5001568;28;19921;-82
2022/03/03 11:13:20;;;;;;;;;;;8.90;99.90;;;;;;4980581;28;20012;-82
2022/03/03 11:15:45;;;;;;;;;;;9.00;99.90;;;;;;4997567;28;19969;-83
2022/03/03 11:18:13;;;;;;;;;;;9.10;99.90;;;;;;5013448;28;19921;-82
2022/03/03 11:20:39;;;;;;;;;;;9.30;99.90;;;;;;5013761;28;19922;-83
2022/03/03 11:23:05;;;;;;;;;;;9.40;99.90;;;;;;5011490;28;20037;-85
2022/03/03 11:25:32;;;;;;;;;;;9.60;99.90;;;;;;5013032;28;19917;-83
2022/03/03 11:28:18;;;;;;;;;;;9.70;99.90;;;;;;5016756;28;19927;-83
2022/03/03 11:30:46;;;;;;;;;;;9.90;99.90;;;;;;4981723;28;20393;-83
2022/03/03 11:33:19;;;;;;;;;;;10.10;99.90;;;;;;4995126;28;20004;-84
2022/03/03 11:35:46;;;;;;;;;;;10.20;99.90;;;;;;5007407;28;20044;-82
2022/03/03 11:38:11;;;;;;;;;;;10.50;99.90;;;;;;5001764;28;19925;-84
2022/03/03 11:40:49;;;;;;;;;;;10.90;99.90;;;;;;5007667;28;19925;-83
2022/03/03 11:43:15;;;;;;;;;;;11.20;99.90;;;;;;5010958;28;19971;-82
2022/03/03 11:45:47;;;;;;;;;;;11.60;99.90;;;;;;5005654;28;20366;-83
2022/03/03 11:48:15;;;;;;;;;;;12.00;99.90;;;;;;5006010;28;19935;-83
2022/03/03 11:50:41;;;;;;;;;;;12.20;99.90;;;;;;5001366;28;19921;-83
2022/03/03 11:53:10;;;;;;;;;;;12.50;99.90;;;;;;5007264;28;19925;-83
2022/03/03 11:55:35;;;;;;;;;;;12.80;99.90;;;;;;5001112;28;19975;-84
2022/03/03 11:58:04;;;;;;;;;;;12.90;99.60;;;;;;4997744;28;19929;-85
2022/03/03 12:00:31;;;;;;;;;;;12.90;98.60;;;;;;4995493;28;19925;-84
2022/03/03 12:02:59;;;;;;;;;;;13.10;98.30;;;;;;5001669;28;19983;-84
2022/03/03 12:05:28;;;;;;;;;;;13.20;97.50;;;;;;4994635;28;20283;-84
2022/03/03 12:07:58;;;;;;;;;;;13.20;97.00;;;;;;4999851;28;19933;-84
2022/03/03 12:10:23;;;;;;;;;;;13.30;97.70;;;;;;5001303;28;20012;-84
2022/03/03 12:12:49;;;;;;;;;;;13.40;96.80;;;;;;5001848;28;20019;-85
2022/03/03 12:15:15;;;;;;;;;;;13.60;95.80;;;;;;5000772;28;19925;-84
2022/03/03 12:17:42;;;;;;;;;;;13.70;95.90;;;;;;4999179;28;19960;-83
2022/03/03 12:20:23;;;;;;;;;;;13.70;96.10;;;;;;4998619;28;20428;-83
2022/03/03 12:22:58;;;;;;;;;;;13.70;94.10;;;;;;5013952;28;19921;-84
2022/03/03 12:25:43;;;;;;;;;;;13.70;94.10;;;;;;4994780;28;19929;-84
2022/03/03 12:28:35;;;;;;;;;;;13.80;94.00;;;;;;4999741;28;19929;-84
2022/03/03 12:31:01;;;;;;;;;;;14.00;94.90;;;;;;4996322;28;19925;-84
2022/03/03 12:33:31;;;;;;;;;;;14.20;95.60;;;;;;5004872;28;20063;-84
2022/03/03 12:36:01;;;;;;;;;;;14.30;96.10;;;;;;5005063;28;20452;-84
2022/03/03 12:38:27;;;;;;;;;;;14.30;96.30;;;;;;4982897;28;20012;-84
2022/03/03 12:40:54;;;;;;;;;;;14.40;95.90;;;;;;5000588;28;19922;-85
2022/03/03 12:43:20;;;;;;;;;;;14.60;95.60;;;;;;4998246;28;19922;-84
2022/03/03 12:45:48;;;;;;;;;;;14.70;95.50;;;;;;4999436;28;19921;-84
2022/03/03 12:48:14;;;;;;;;;;;14.60;95.20;;;;;;4995274;28;19999;-84
2022/03/03 12:50:40;;;;;;;;;;;14.70;94.70;;;;;;5012541;28;19921;-84
2022/03/03 12:53:05;;;;;;;;;;;14.50;94.60;;;;;;4995560;28;19968;-84
2022/03/03 12:55:33;;;;;;;;;;;14.30;94.60;;;;;;5002006;28;19921;-84
2022/03/03 12:57:59;;;;;;;;;;;14.30;94.40;;;;;;4995019;28;19968;-81
2022/03/03 13:00:24;;;;;;;;;;;14.20;94.20;;;;;;4991989;28;19925;-84
2022/03/03 13:02:55;;;;;;;;;;;14.10;94.10;;;;;;5018838;28;19928;-83